Time;durP1;ratioP1;P1;durP2;ratioP2;P2;SDS_P1;SDS_P2;PMS_P1;PMS_P2;Temp;Humidity;BMP_temperature;BMP_pressure;BME280_temperature;BME280_humidity;BME280_pressure;Samples;Min_cycle;Max_cycle;Signal;HPM_P1;HPM_P2
2022/06/09 00:00:11;;;;;;;11.63;2.30;;;;;;;22.23;48.06;101071.97;5079828;22;20049;-65
2022/06/09 00:02:42;;;;;;;6.88;1.70;;;;;;;22.15;49.09;101062.41;5071373;28;20037;-64
2022/06/09 00:05:12;;;;;;;5.30;1.83;;;;;;;22.39;47.94;101063.44;5069584;28;20178;-65
2022/06/09 00:07:39;;;;;;;11.88;2.20;;;;;;;22.32;48.69;101045.72;5071624;28;20522;-65
2022/06/09 00:10:13;;;;;;;7.82;2.13;;;;;;;22.10;48.82;101048.84;5071652;28;20078;-65
2022/06/09 00:12:39;;;;;;;9.95;2.08;;;;;;;22.08;49.13;101042.78;5053342;28;20071;-65
2022/06/09 00:15:09;;;;;;;7.10;2.05;;;;;;;21.91;49.58;101028.69;5036415;28;20533;-66
2022/06/09 00:17:37;;;;;;;5.85;2.08;;;;;;;22.01;49.10;101045.81;5036295;28;20520;-67
2022/06/09 00:20:05;;;;;;;6.63;2.03;;;;;;;22.08;49.25;101037.34;5039515;28;20024;-66
2022/06/09 00:22:31;;;;;;;4.85;1.80;;;;;;;21.88;48.96;101035.50;5033681;28;20396;-66
2022/06/09 00:24:57;;;;;;;8.85;2.92;;;;;;;22.10;49.63;101021.56;5041371;28;20177;-64
2022/06/09 00:27:24;;;;;;;6.88;1.85;;;;;;;22.10;48.62;101027.03;5038240;28;20033;-65
2022/06/09 00:29:50;;;;;;;6.28;2.35;;;;;;;22.09;49.21;101044.41;5041726;28;20029;-65
2022/06/09 00:32:16;;;;;;;10.27;2.65;;;;;;;22.21;49.73;101034.06;5043689;28;20615;-65
2022/06/09 00:34:42;;;;;;;9.10;2.60;;;;;;;22.22;49.33;101041.16;5047574;28;20166;-65
2022/06/09 00:37:08;;;;;;;12.10;2.65;;;;;;;22.08;48.90;101040.06;5047105;28;20078;-65
2022/06/09 00:39:35;;;;;;;12.27;2.28;;;;;;;21.93;49.66;101031.94;5050959;28;20389;-64
2022/06/09 00:42:01;;;;;;;5.53;2.70;;;;;;;22.04;49.34;101034.38;5051857;28;20492;-65
2022/06/09 00:44:29;;;;;;;5.40;2.15;;;;;;;22.39;49.54;101038.88;5051736;28;20048;-64
2022/06/09 00:47:02;;;;;;;9.23;2.85;;;;;;;22.17;48.61;101048.53;5038918;28;20014;-65
2022/06/09 00:49:43;;;;;;;6.13;2.20;;;;;;;22.40;50.07;101036.97;5036478;28;20033;-65
2022/06/09 00:52:15;;;;;;;8.85;2.75;;;;;;;22.29;48.86;101029.94;5029050;28;20018;-64
2022/06/09 00:54:47;;;;;;;5.93;2.25;;;;;;;22.32;49.79;101018.44;5033072;28;20436;-64
2022/06/09 00:57:24;;;;;;;7.07;2.63;;;;;;;22.19;49.66;101006.25;5040174;28;20039;-64
2022/06/09 00:59:55;;;;;;;11.52;2.95;;;;;;;22.28;50.05;101010.03;5031280;28;20866;-65
2022/06/09 01:02:23;;;;;;;7.55;2.83;;;;;;;22.31;50.47;101012.19;5032908;28;20037;-64
2022/06/09 01:04:52;;;;;;;9.85;2.30;;;;;;;22.33;50.22;101009.19;5031374;28;20387;-65
2022/06/09 01:07:23;;;;;;;5.93;1.83;;;;;;;22.29;49.29;101008.13;5013541;28;20063;-65
2022/06/09 01:09:50;;;;;;;8.45;2.92;;;;;;;22.11;51.17;101002.22;5033346;28;20018;-65
2022/06/09 01:12:26;;;;;;;7.03;2.30;;;;;;;22.04;50.86;101000.81;5052463;28;20025;-64
2022/06/09 01:14:59;;;;;;;9.13;2.00;;;;;;;21.99;50.29;101001.69;5055176;28;20074;-65
2022/06/09 01:17:52;;;;;;;11.68;3.15;;;;;;;21.90;50.98;100997.06;5051714;28;20132;-65
2022/06/09 01:20:41;;;;;;;11.57;5.40;;;;;;;21.64;51.44;100999.03;5035304;28;20052;-65
2022/06/09 01:23:13;;;;;;;6.18;2.33;;;;;;;21.77;51.19;101004.75;5035547;28;20208;-65
2022/06/09 01:25:54;;;;;;;8.80;2.40;;;;;;;21.63;50.38;101011.84;5052160;28;20078;-65
2022/06/09 01:28:38;;;;;;;6.00;2.35;;;;;;;21.57;50.95;101015.69;5049946;28;20066;-64
2022/06/09 01:31:25;;;;;;;6.32;3.10;;;;;;;21.34;51.81;101015.16;5054766;28;20074;-65
2022/06/09 01:33:54;;;;;;;9.90;3.58;;;;;;;21.46;51.71;101022.22;5054969;28;20430;-64
2022/06/09 01:36:29;;;;;;;6.35;3.65;;;;;;;21.57;51.58;101021.13;5054821;28;20036;-64
2022/06/09 01:38:58;;;;;;;7.47;3.03;;;;;;;21.25;51.72;101018.66;5055161;28;20024;-65
2022/06/09 01:41:26;;;;;;;14.35;4.47;;;;;;;20.98;52.90;101005.31;5048996;28;20038;-64
2022/06/09 01:43:54;;;;;;;11.43;5.35;;;;;;;21.26;52.72;101012.13;5052179;28;20036;-64
2022/06/09 01:46:29;;;;;;;10.70;4.45;;;;;;;21.28;52.42;100999.91;5028841;28;20036;-64
2022/06/09 01:49:01;;;;;;;12.10;2.78;;;;;;;21.01;52.14;100994.72;5045964;28;20033;-65
2022/06/09 01:51:33;;;;;;;7.55;2.47;;;;;;;20.68;53.03;101006.94;5046560;28;20033;-66
2022/06/09 01:54:22;;;;;;;11.27;3.03;;;;;;;20.74;52.84;101002.31;5052432;28;20020;-65
2022/06/09 01:56:53;;;;;;;11.80;3.03;;;;;;;20.34;53.82;101000.28;5054114;28;20040;-66
2022/06/09 01:59:33;;;;;;;7.93;2.15;;;;;;;20.42;53.67;100995.13;5042416;28;20060;-66
2022/06/09 02:02:16;;;;;;;8.55;2.90;;;;;;;20.21;54.40;100996.16;5045996;28;20071;-66
2022/06/09 02:04:50;;;;;;;7.43;2.40;;;;;;;20.42;53.55;101003.28;5054624;28;20037;-66
2022/06/09 02:07:19;;;;;;;9.63;2.67;;;;;;;20.27;54.27;100995.94;5054135;28;20559;-66
2022/06/09 02:09:46;;;;;;;9.20;2.33;;;;;;;20.21;54.66;100994.28;5042978;28;20033;-66
2022/06/09 02:12:16;;;;;;;9.93;2.60;;;;;;;20.52;53.56;100995.19;5034956;28;20029;-65
2022/06/09 02:14:49;;;;;;;11.25;3.45;;;;;;;20.94;53.37;100994.19;5034270;28;20497;-65
2022/06/09 02:17:16;;;;;;;13.93;2.75;;;;;;;21.11;52.31;100984.94;5019848;28;20052;-66
2022/06/09 02:19:44;;;;;;;8.52;2.65;;;;;;;21.09;52.21;100996.06;5038537;28;20029;-66
2022/06/09 02:22:12;;;;;;;8.70;2.45;;;;;;;21.24;51.83;101001.53;5033988;28;20486;-66
2022/06/09 02:24:39;;;;;;;9.75;2.00;;;;;;;21.30;51.32;100995.00;5015275;28;20033;-65
2022/06/09 02:27:06;;;;;;;8.38;2.53;;;;;;;21.14;51.88;101006.16;5036816;28;20025;-66
2022/06/09 02:29:33;;;;;;;9.38;2.30;;;;;;;21.20;51.68;101005.88;5054012;28;20148;-66
2022/06/09 02:32:00;;;;;;;9.55;2.60;;;;;;;20.95;51.99;101003.16;5051745;28;20028;-66
2022/06/09 02:34:26;;;;;;;12.90;2.90;;;;;;;20.81;52.86;101006.41;5038923;28;20417;-66
2022/06/09 02:36:53;;;;;;;9.05;2.60;;;;;;;20.78;53.14;100995.25;5046897;28;20032;-66
2022/06/09 02:39:19;;;;;;;8.85;2.38;;;;;;;20.63;53.07;100984.34;5048357;28;20473;-66
2022/06/09 02:41:45;;;;;;;10.30;2.90;;;;;;;20.56;53.31;100998.22;5040465;28;20029;-67
2022/06/09 02:44:11;;;;;;;7.97;2.53;;;;;;;20.35;53.76;100993.78;5035082;28;20378;-66
2022/06/09 02:46:37;;;;;;;8.25;2.85;;;;;;;19.95;55.32;100997.97;5053903;28;20033;-66
2022/06/09 02:49:04;;;;;;;9.10;3.50;;;;;;;19.74;55.46;101002.47;5043987;28;20479;-66
2022/06/09 02:51:33;;;;;;;11.90;3.28;;;;;;;19.70;55.50;101013.03;5026492;28;20108;-66
2022/06/09 02:54:03;;;;;;;8.90;2.70;;;;;;;19.24;56.63;101009.97;5053232;28;20017;-67
2022/06/09 02:56:30;;;;;;;9.35;3.13;;;;;;;18.84;57.69;101010.44;5053126;28;20040;-66
2022/06/09 02:58:57;;;;;;;9.05;2.47;;;;;;;18.91;57.31;101015.66;5053317;28;20037;-66
2022/06/09 03:01:24;;;;;;;9.23;2.67;;;;;;;18.64;58.41;101026.47;5052961;28;20116;-66
2022/06/09 03:03:51;;;;;;;12.68;2.97;;;;;;;18.45;58.84;101031.41;5052640;28;20106;-66
2022/06/09 03:06:17;;;;;;;11.15;3.25;;;;;;;18.00;60.43;101023.56;5051704;28;20493;-67
2022/06/09 03:08:44;;;;;;;9.02;3.47;;;;;;;17.79;60.65;101023.25;5033790;28;20043;-65
2022/06/09 03:11:13;;;;;;;9.73;3.13;;;;;;;17.46;61.93;101013.28;5034436;28;20072;-61
2022/06/09 03:13:41;;;;;;;12.57;3.25;;;;;;;17.30;62.36;101016.81;5037320;28;20029;-60
2022/06/09 03:16:08;;;;;;;9.38;3.17;;;;;;;16.73;64.13;101012.31;5032805;28;20040;-69
2022/06/09 03:18:36;;;;;;;11.80;3.03;;;;;;;16.41;65.52;101022.75;5032530;28;20025;-62
2022/06/09 03:21:02;;;;;;;10.85;3.72;;;;;;;16.40;66.01;101015.72;5032421;28;20022;-72
2022/06/09 03:23:29;;;;;;;12.00;3.13;;;;;;;16.38;65.95;101025.94;5044221;28;20057;-65
2022/06/09 03:25:55;;;;;;;16.15;3.15;;;;;;;16.17;66.70;101026.59;5049844;28;20440;-57
2022/06/09 03:28:21;;;;;;;16.27;3.15;;;;;;;16.14;66.95;101027.88;5044950;28;20021;-59
2022/06/09 03:30:47;;;;;;;11.77;2.90;;;;;;;15.92;67.73;101022.28;5050132;28;20037;-65
2022/06/09 03:33:14;;;;;;;6.30;2.50;;;;;;;15.79;68.28;101019.84;5045597;28;20048;-72
2022/06/09 03:35:40;;;;;;;10.45;2.67;;;;;;;15.74;67.85;101028.63;5050816;28;20044;-67
2022/06/09 03:38:06;;;;;;;14.30;3.33;;;;;;;15.71;68.01;101014.78;5048016;28;20029;-75
2022/06/09 03:40:32;;;;;;;6.72;2.40;;;;;;;15.75;67.67;101024.06;5042067;28;20071;-67
2022/06/09 03:43:02;;;;;;;7.05;2.25;;;;;;;15.74;67.64;101025.13;5049139;28;20021;-71
2022/06/09 03:45:30;;;;;;;15.18;2.90;;;;;;;15.64;68.01;101027.59;5032099;28;20401;-73
2022/06/09 03:47:56;;;;;;;10.40;2.33;;;;;;;15.53;68.57;101024.59;5052177;28;20037;-58
2022/06/09 03:50:26;;;;;;;9.35;2.58;;;;;;;15.58;68.26;101024.72;5049057;28;20021;-58
2022/06/09 03:52:52;;;;;;;8.30;2.50;;;;;;;15.44;68.79;101030.59;5047304;28;20033;-75
2022/06/09 03:55:19;;;;;;;7.47;2.53;;;;;;;15.48;68.67;101026.38;5052154;28;20032;-73
2022/06/09 03:57:45;;;;;;;11.75;2.33;;;;;;;15.42;68.44;101011.94;5040347;28;20493;-76
2022/06/09 04:00:23;;;;;;;9.77;2.63;;;;;;;15.37;68.75;101022.59;5049911;28;20033;-74
2022/06/09 04:02:49;;;;;;;7.63;2.60;;;;;;;15.13;69.72;101019.06;5034598;28;20033;-74
2022/06/09 04:05:15;;;;;;;7.78;2.55;;;;;;;15.25;69.39;101021.78;5034102;28;20393;-74
2022/06/09 04:07:43;;;;;;;8.18;2.22;;;;;;;15.19;69.60;101030.78;5032553;28;20029;-73
2022/06/09 04:10:17;;;;;;;10.05;2.28;;;;;;;15.16;69.83;101039.38;5014518;28;20029;-72
2022/06/09 04:12:44;;;;;;;7.50;2.17;;;;;;;15.14;69.60;101033.38;5028831;28;20033;-74
2022/06/09 04:15:11;;;;;;;10.30;2.13;;;;;;;15.18;69.88;101043.47;5052235;28;20029;-74
2022/06/09 04:17:37;;;;;;;7.38;2.10;;;;;;;15.13;70.11;101043.31;5052353;28;20358;-74
2022/06/09 04:20:05;;;;;;;8.25;2.50;;;;;;;15.19;70.05;101049.66;5052172;28;20044;-73
2022/06/09 04:22:31;;;;;;;6.90;2.28;;;;;;;15.22;69.50;101046.53;5034257;28;20508;-73
2022/06/09 04:24:57;;;;;;;7.93;2.75;;;;;;;15.24;69.81;101047.91;5036910;28;20175;-74
2022/06/09 04:27:24;;;;;;;5.25;2.00;;;;;;;15.36;69.41;101058.72;5050386;28;20032;-73
2022/06/09 04:29:51;;;;;;;12.40;3.47;;;;;;;15.25;69.72;101063.03;5030394;28;20526;-73
2022/06/09 04:32:17;;;;;;;7.18;2.13;;;;;;;15.23;69.97;101067.03;5031754;28;20497;-73
2022/06/09 04:34:43;;;;;;;8.43;2.33;;;;;;;15.14;70.15;101080.00;5040951;28;20033;-75
2022/06/09 04:37:10;;;;;;;9.45;2.40;;;;;;;15.16;70.25;101085.19;5051241;28;20025;-73
2022/06/09 04:39:36;;;;;;;11.98;2.83;;;;;;;15.14;70.07;101084.59;5040259;28;20473;-73
2022/06/09 04:42:02;;;;;;;10.90;2.10;;;;;;;15.25;69.92;101086.50;5016624;28;20036;-73
2022/06/09 04:44:29;;;;;;;12.63;2.78;;;;;;;15.25;70.08;101089.19;5033167;28;20021;-73
2022/06/09 04:46:55;;;;;;;7.78;2.65;;;;;;;15.08;70.72;101086.31;5045467;28;20109;-74
2022/06/09 04:49:21;;;;;;;12.27;3.13;;;;;;;15.16;70.45;101083.31;5045250;28;20496;-73
2022/06/09 04:51:47;;;;;;;11.45;2.58;;;;;;;14.98;71.02;101077.97;5036299;28;20047;-73
2022/06/09 04:54:13;;;;;;;13.43;2.65;;;;;;;15.08;70.52;101088.22;5023307;28;20022;-74
2022/06/09 04:56:40;;;;;;;11.63;3.10;;;;;;;14.96;70.83;101094.38;5051401;28;20044;-74
2022/06/09 04:59:06;;;;;;;7.28;2.80;;;;;;;15.03;70.85;101089.72;5039450;28;20061;-74
2022/06/09 05:01:32;;;;;;;11.65;2.92;;;;;;;15.05;70.97;101087.63;5038939;28;20438;-74
2022/06/09 05:04:00;;;;;;;9.35;2.75;;;;;;;15.02;71.20;101085.38;5033857;28;20067;-74
2022/06/09 05:06:28;;;;;;;12.48;2.75;;;;;;;14.91;72.14;101079.94;5038935;28;20036;-74
2022/06/09 05:08:55;;;;;;;11.98;3.55;;;;;;;15.09;71.55;101087.16;5037940;28;20439;-72
2022/06/09 05:11:23;;;;;;;12.23;3.05;;;;;;;14.94;72.20;101091.09;5047072;28;20020;-73
2022/06/09 05:13:50;;;;;;;14.30;3.15;;;;;;;14.96;72.15;101094.38;5027319;28;20029;-73
2022/06/09 05:16:17;;;;;;;8.30;2.72;;;;;;;15.00;71.71;101106.34;5054790;28;20079;-73
2022/06/09 05:18:43;;;;;;;8.98;3.05;;;;;;;14.91;71.94;101104.19;5048895;28;20128;-73
2022/06/09 05:21:10;;;;;;;13.60;2.30;;;;;;;14.82;72.04;101098.28;5054230;28;20032;-74
2022/06/09 05:23:37;;;;;;;14.55;3.30;;;;;;;14.88;71.56;101092.00;5038365;28;20109;-74
2022/06/09 05:26:05;;;;;;;11.35;2.60;;;;;;;14.88;71.70;101092.00;5032969;28;20432;-73
2022/06/09 05:28:32;;;;;;;12.43;3.05;;;;;;;14.86;71.65;101101.38;5051361;28;20018;-74
2022/06/09 05:30:59;;;;;;;12.32;3.40;;;;;;;14.90;71.82;101103.38;5034667;28;20540;-73
2022/06/09 05:33:26;;;;;;;12.70;2.60;;;;;;;14.89;72.00;101114.41;5034592;28;20021;-74
2022/06/09 05:35:53;;;;;;;11.27;3.10;;;;;;;14.63;72.50;101110.16;5034476;28;20112;-73
2022/06/09 05:46:35;;;;;;;14.27;3.65;;;;;;;14.64;73.12;101114.50;5054432;28;20043;-74
2022/06/09 05:49:02;;;;;;;8.45;2.47;;;;;;;14.76;73.22;101118.06;5054431;28;20028;-73
2022/06/09 05:51:30;;;;;;;9.23;2.58;;;;;;;14.82;73.03;101109.06;5053699;28;20104;-73
2022/06/09 05:53:56;;;;;;;9.30;3.08;;;;;;;14.76;73.31;101121.59;5036887;28;20033;-75
2022/06/09 05:56:23;;;;;;;8.05;3.60;;;;;;;14.59;74.05;101109.78;5054148;28;20095;-74
2022/06/09 05:58:49;;;;;;;12.15;3.38;;;;;;;14.66;73.28;101115.94;5053208;28;20064;-73
2022/06/09 06:01:15;;;;;;;11.77;2.80;;;;;;;14.63;73.29;101104.78;5053887;28;20025;-73
2022/06/09 06:03:43;;;;;;;9.23;3.20;;;;;;;14.48;74.23;101103.28;5054150;28;20393;-75
2022/06/09 06:08:54;;;;;;;10.23;3.20;;;;;;;14.61;73.67;101101.50;5054238;28;20439;-74
2022/06/09 06:11:21;;;;;;;10.25;2.85;;;;;;;14.52;74.26;101101.78;5053843;28;20033;-74
2022/06/09 06:13:47;;;;;;;12.73;3.28;;;;;;;14.52;74.55;101101.78;5053978;28;20021;-71
2022/06/09 06:16:14;;;;;;;8.50;3.17;;;;;;;14.56;74.39;101099.47;5053447;28;20098;-72
2022/06/09 06:18:40;;;;;;;10.38;3.47;;;;;;;14.46;74.78;101091.88;5053591;28;20405;-73
2022/06/09 06:21:07;;;;;;;12.73;3.83;;;;;;;14.40;74.84;101092.78;5036183;28;20079;-73
2022/06/09 06:23:34;;;;;;;12.93;3.55;;;;;;;14.42;74.77;101082.59;5054085;28;20032;-72
2022/06/09 06:26:00;;;;;;;14.80;3.80;;;;;;;14.57;74.30;101084.13;5036306;28;20055;-73
2022/06/09 06:28:27;;;;;;;11.90;3.95;;;;;;;14.52;74.21;101080.25;5036200;28;20025;-72
2022/06/09 06:30:54;;;;;;;13.07;3.72;;;;;;;14.59;73.64;101080.16;5053825;28;20051;-73
2022/06/09 06:33:22;;;;;;;10.57;4.00;;;;;;;14.66;73.00;101064.75;5053038;28;20090;-72
2022/06/09 06:35:50;;;;;;;9.52;3.47;;;;;;;14.57;72.85;101052.63;5035375;28;20029;-71
2022/06/09 06:38:16;;;;;;;14.30;4.13;;;;;;;14.56;73.23;101071.72;5035007;28;20029;-71
2022/06/09 06:40:42;;;;;;;9.32;3.67;;;;;;;14.47;73.56;101055.84;5034357;28;20424;-71
2022/06/09 06:43:09;;;;;;;11.32;4.07;;;;;;;14.69;73.03;101072.34;5035788;28;20028;-74
2022/06/09 06:45:35;;;;;;;6.60;3.38;;;;;;;14.57;73.15;101074.19;5035532;28;20021;-72
2022/06/09 06:48:01;;;;;;;13.85;4.05;;;;;;;14.61;73.12;101074.56;5052058;28;20094;-72
2022/06/09 06:50:28;;;;;;;13.23;3.45;;;;;;;14.60;73.10;101062.09;5052091;28;20029;-72
2022/06/09 06:52:54;;;;;;;10.15;3.60;;;;;;;14.57;72.80;101063.41;5050783;28;20028;-71
2022/06/09 06:55:22;;;;;;;9.25;3.53;;;;;;;14.48;73.19;101075.53;5052298;28;20029;-72
2022/06/09 06:57:49;;;;;;;9.27;3.88;;;;;;;14.49;73.37;101079.84;5051866;28;20028;-72
2022/06/09 07:00:19;;;;;;;11.10;3.15;;;;;;;14.49;73.38;101075.31;5051672;28;20404;-72
2022/06/09 07:02:46;;;;;;;9.82;3.53;;;;;;;14.45;73.65;101084.84;5051115;28;20029;-72
2022/06/09 07:05:13;;;;;;;9.63;3.17;;;;;;;14.37;74.07;101074.38;5052214;28;20472;-72
2022/06/09 07:07:40;;;;;;;12.15;3.25;;;;;;;14.45;73.61;101070.56;5052200;28;20074;-72
2022/06/09 07:10:09;;;;;;;9.70;3.38;;;;;;;14.50;73.22;101073.44;5033039;28;20449;-72
2022/06/09 07:12:36;;;;;;;11.57;3.60;;;;;;;14.39;73.55;101084.94;5051037;28;20037;-72
2022/06/09 07:15:03;;;;;;;8.60;3.40;;;;;;;14.29;73.58;101080.06;5051519;28;20090;-72
2022/06/09 07:17:29;;;;;;;10.60;3.45;;;;;;;14.27;73.38;101088.38;5051301;28;20025;-72
2022/06/09 07:19:56;;;;;;;8.48;2.78;;;;;;;14.20;73.22;101079.53;5050791;28;20035;-73
2022/06/09 07:22:22;;;;;;;12.32;2.90;;;;;;;14.16;73.18;101083.75;5052377;28;20052;-73
2022/06/09 07:24:49;;;;;;;7.80;3.10;;;;;;;14.24;72.96;101088.00;5051660;28;20070;-73
2022/06/09 07:27:15;;;;;;;7.03;2.42;;;;;;;14.15;73.27;101082.06;5051391;28;20032;-72
2022/06/09 07:29:42;;;;;;;11.00;2.95;;;;;;;14.12;73.61;101073.63;5051228;28;20103;-72
2022/06/09 07:32:09;;;;;;;5.55;2.38;;;;;;;14.18;73.65;101080.81;5048361;28;20048;-73
2022/06/09 07:34:36;;;;;;;6.38;2.40;;;;;;;14.12;73.78;101071.78;5041919;28;20028;-72
2022/06/09 07:37:04;;;;;;;11.82;3.22;;;;;;;13.99;74.45;101071.88;5039514;28;20362;-72
2022/06/09 07:39:30;;;;;;;8.45;3.20;;;;;;;14.05;73.93;101062.09;5048954;28;20025;-72
2022/06/09 07:41:56;;;;;;;11.30;3.20;;;;;;;13.95;74.30;101074.22;5048806;28;20021;-71
2022/06/09 07:44:22;;;;;;;8.95;2.67;;;;;;;13.82;74.72;101077.03;5051289;28;20114;-72
2022/06/09 07:46:48;;;;;;;8.55;2.75;;;;;;;13.94;74.14;101069.06;5045756;28;20082;-72
2022/06/09 07:49:15;;;;;;;10.55;2.97;;;;;;;13.89;74.53;101083.19;5034071;28;20036;-72
2022/06/09 07:51:41;;;;;;;10.10;3.28;;;;;;;13.94;74.13;101079.84;5050671;28;20102;-72
2022/06/09 07:54:08;;;;;;;14.73;4.35;;;;;;;13.85;74.60;101067.69;5049752;28;20032;-72
2022/06/09 07:56:34;;;;;;;14.90;4.22;;;;;;;13.86;74.42;101085.50;5050609;28;20025;-71
2022/06/09 07:59:03;;;;;;;12.95;4.32;;;;;;;13.94;74.33;101079.84;5041782;28;20120;-71
2022/06/09 08:01:29;;;;;;;13.82;3.78;;;;;;;13.91;74.47;101086.47;5032606;28;20112;-72
2022/06/09 08:03:56;;;;;;;16.88;4.50;;;;;;;13.84;74.44;101083.03;5040089;28;20378;-72
2022/06/09 08:06:23;;;;;;;14.55;3.83;;;;;;;13.91;74.20;101080.28;5048664;28;20468;-72
2022/06/09 08:08:50;;;;;;;11.57;3.50;;;;;;;13.84;74.47;101077.66;5050590;28;20025;-73
2022/06/09 08:11:17;;;;;;;13.50;3.92;;;;;;;13.80;74.34;101073.75;5050377;28;20381;-72
2022/06/09 08:13:44;;;;;;;13.82;3.63;;;;;;;13.80;74.24;101073.75;5038456;28;20025;-72
2022/06/09 08:16:10;;;;;;;14.45;4.47;;;;;;;13.76;74.43;101077.91;5032285;28;20040;-72
2022/06/09 08:18:36;;;;;;;12.07;3.45;;;;;;;13.81;74.27;101064.63;5050284;28;20082;-72
2022/06/09 08:21:02;;;;;;;11.05;3.08;;;;;;;13.72;74.40;101068.66;5050009;28;20021;-72
2022/06/09 08:23:29;;;;;;;13.00;3.45;;;;;;;13.60;75.38;101063.19;5050065;28;20033;-71
2022/06/09 08:26:03;;;;;;;17.17;4.45;;;;;;;13.63;74.79;101057.34;5050492;28;20032;-74
2022/06/09 08:28:29;;;;;;;18.30;4.07;;;;;;;13.53;75.36;101064.25;5050116;28;20029;-70
2022/06/09 08:30:57;;;;;;;8.82;3.30;;;;;;;13.76;74.62;101063.66;5049495;28;20537;-72
2022/06/09 08:33:25;;;;;;;12.57;3.40;;;;;;;13.78;74.52;101057.00;5048907;28;20064;-72
2022/06/09 08:35:52;;;;;;;10.88;3.38;;;;;;;13.61;74.97;101062.13;5050022;28;20040;-71
2022/06/09 08:38:19;;;;;;;11.40;3.55;;;;;;;13.51;75.42;101056.44;5051465;28;20055;-72
2022/06/09 08:41:23;;;;;;;8.07;2.92;;;;;;;13.56;75.54;101067.34;5049565;28;20025;-71
2022/06/09 08:44:24;;;;;;;9.65;3.63;;;;;;;13.53;75.62;101062.41;5028503;28;20029;-72
2022/06/09 08:47:08;;;;;;;7.95;3.28;;;;;;;13.56;75.62;101070.03;5048474;28;20044;-72
2022/06/09 08:50:06;;;;;;;10.45;3.80;;;;;;;13.54;75.86;101071.28;5040103;28;20033;-72
2022/06/09 08:52:56;;;;;;;15.65;3.33;;;;;;;13.43;76.32;101062.88;5013761;28;20405;-72
2022/06/09 08:55:31;;;;;;;11.23;3.55;;;;;;;13.53;76.01;101066.94;5041565;28;20091;-72
2022/06/09 08:58:11;;;;;;;9.02;3.30;;;;;;;13.61;75.69;101066.69;5047046;28;20141;-72
2022/06/09 09:00:44;;;;;;;11.90;4.18;;;;;;;13.62;75.51;101066.47;5031096;28;20120;-72
2022/06/09 09:03:31;;;;;;;9.95;3.50;;;;;;;13.69;74.81;101075.28;5031816;28;20030;-72
2022/06/09 09:06:24;;;;;;;13.95;3.22;;;;;;;13.62;75.30;101055.72;5034430;28;20111;-72
2022/06/09 09:08:51;;;;;;;9.43;3.38;;;;;;;13.66;75.27;101061.47;5030836;28;20080;-72
2022/06/09 09:11:52;;;;;;;13.52;4.22;;;;;;;13.68;75.01;101059.38;5031836;28;20033;-72
2022/06/09 09:14:30;;;;;;;7.03;3.20;;;;;;;13.64;75.11;101052.78;5012185;28;20041;-72
2022/06/09 09:17:11;;;;;;;14.60;3.80;;;;;;;13.74;74.86;101048.56;5030958;28;20561;-72
2022/06/09 09:19:44;;;;;;;13.52;3.90;;;;;;;13.78;74.86;101048.13;5031213;28;20036;-72
2022/06/09 09:22:22;;;;;;;8.85;3.10;;;;;;;13.84;74.53;101047.22;5031428;28;20033;-72
2022/06/09 09:25:17;;;;;;;16.48;3.85;;;;;;;13.90;74.43;101047.16;5028663;28;20034;-72
2022/06/09 09:28:05;;;;;;;24.40;4.47;;;;;;;13.73;74.38;101046.91;5033426;28;20037;-72
2022/06/09 09:30:40;;;;;;;15.98;3.70;;;;;;;13.61;75.35;101039.78;5032920;28;20040;-73
2022/06/09 09:33:15;;;;;;;15.38;4.20;;;;;;;13.57;75.13;101031.34;5034473;28;20086;-72
2022/06/09 09:35:44;;;;;;;18.60;5.30;;;;;;;13.79;74.92;101034.44;5054727;28;20039;-72
2022/06/09 09:38:15;;;;;;;13.07;4.28;;;;;;;13.86;74.43;101035.19;5054528;28;20021;-72
2022/06/09 09:40:56;;;;;;;12.43;4.32;;;;;;;13.76;74.62;101031.34;5024765;28;20476;-72
2022/06/09 09:43:26;;;;;;;15.80;4.53;;;;;;;13.56;75.42;101031.56;5052123;28;20528;-72
2022/06/09 09:45:56;;;;;;;17.67;4.32;;;;;;;13.75;74.57;101033.22;5053995;28;20082;-72
2022/06/09 09:48:22;;;;;;;11.65;3.95;;;;;;;13.78;74.42;101034.66;5051587;28;20495;-72
2022/06/09 09:50:59;;;;;;;12.82;4.28;;;;;;;13.67;74.76;101037.03;5053712;28;20138;-72
2022/06/09 09:53:31;;;;;;;14.82;4.07;;;;;;;13.62;74.95;101046.81;5051325;28;20017;-72
2022/06/09 09:56:16;;;;;;;17.10;4.72;;;;;;;13.74;74.44;101042.34;5042405;28;20114;-71
2022/06/09 09:58:48;;;;;;;19.35;5.18;;;;;;;13.66;74.77;101048.03;5052712;28;20045;-73
2022/06/09 10:01:17;;;;;;;18.08;4.30;;;;;;;13.72;74.69;101050.66;5050933;28;20116;-72
2022/06/09 10:09:46;;;;;;;13.50;4.15;;;;;;;13.71;74.72;101058.91;5052413;28;20095;-72
2022/06/09 10:12:16;;;;;;;18.90;4.28;;;;;;;13.69;75.18;101066.41;5033435;28;20025;-72
2022/06/09 10:14:51;;;;;;;14.15;4.18;;;;;;;13.72;74.81;101077.56;5033771;28;20021;-72
2022/06/09 10:18:07;;;;;;;12.07;3.88;;;;;;;13.77;74.96;101076.03;5042217;28;20032;-72
2022/06/09 10:20:48;;;;;;;17.00;4.53;;;;;;;13.74;75.33;101077.31;5036319;28;20040;-72
2022/06/09 10:23:17;;;;;;;14.35;4.10;;;;;;;13.75;75.15;101076.28;5033125;28;20428;-72
2022/06/09 10:26:02;;;;;;;13.55;4.10;;;;;;;13.88;74.86;101072.63;5031704;28;20095;-72
2022/06/09 10:28:57;;;;;;;17.45;6.03;;;;;;;13.91;74.73;101072.19;5034598;28;20375;-72
2022/06/09 10:31:40;;;;;;;19.17;4.60;;;;;;;13.89;74.32;101071.59;4978164;28;20041;-72
2022/06/09 10:34:18;;;;;;;15.80;4.35;;;;;;;13.83;74.02;101076.00;5032513;28;20186;-72
2022/06/09 10:37:08;;;;;;;17.10;4.60;;;;;;;13.81;73.92;101070.00;5032421;28;20025;-72
2022/06/09 10:40:10;;;;;;;25.38;5.15;;;;;;;13.73;73.88;101073.81;5011830;28;20513;-72
2022/06/09 10:42:44;;;;;;;20.63;5.57;;;;;;;13.64;73.69;101071.63;5028309;28;20126;-72
2022/06/09 10:45:33;;;;;;;24.85;5.18;;;;;;;13.53;73.70;101062.41;5050268;28;20443;-72
2022/06/09 10:57:23;;;;;;;16.27;5.28;;;;;;;13.71;74.23;101059.78;5049290;28;20443;-72
2022/06/09 10:59:57;;;;;;;12.80;4.45;;;;;;;13.55;75.07;101054.94;5030072;28;20132;-72
2022/06/09 11:02:27;;;;;;;16.55;4.30;;;;;;;13.46;75.71;101062.47;5032712;28;20033;-72
2022/06/09 11:04:54;;;;;;;15.63;4.72;;;;;;;13.66;74.65;101058.78;5033237;28;20032;-72
2022/06/09 11:07:51;;;;;;;15.82;3.97;;;;;;;13.73;73.60;101067.63;5042939;28;20032;-72
2022/06/09 11:10:27;;;;;;;16.95;4.30;;;;;;;13.71;73.81;101069.69;5038699;28;20034;-71
2022/06/09 11:13:21;;;;;;;22.98;4.70;;;;;;;13.65;73.78;101074.06;5032550;28;20026;-72
2022/06/09 11:16:28;;;;;;;18.85;4.25;;;;;;;13.77;73.30;101074.22;5038317;28;20041;-73
2022/06/09 11:19:21;;;;;;;17.23;4.13;;;;;;;13.80;72.69;101073.75;4943567;28;20034;-73
2022/06/09 11:22:19;;;;;;;13.77;4.38;;;;;;;13.79;72.74;101074.78;5047309;28;20544;-72
2022/06/09 11:25:26;;;;;;;15.10;4.30;;;;;;;13.68;73.19;101080.91;5009723;28;20049;-73
2022/06/09 11:28:19;;;;;;;15.30;3.80;;;;;;;13.64;73.05;101074.31;5051715;28;20044;-72
2022/06/09 11:30:55;;;;;;;13.25;4.63;;;;;;;13.60;73.41;101084.69;5049601;28;20504;-72
2022/06/09 11:33:36;;;;;;;16.77;5.00;;;;;;;13.57;73.46;101087.00;5050927;28;20048;-72
2022/06/09 11:36:28;;;;;;;16.52;4.60;;;;;;;13.61;73.30;101086.34;5051022;28;20029;-73
2022/06/09 11:39:35;;;;;;;21.20;5.93;;;;;;;13.60;74.03;101095.47;5048614;28;20029;-72
2022/06/09 11:42:20;;;;;;;26.15;5.50;;;;;;;13.64;74.10;101091.25;4971172;28;20108;-72
2022/06/09 11:44:48;;;;;;;23.85;5.63;;;;;;;13.69;73.73;101094.13;5045882;28;20065;-73
2022/06/09 11:47:18;;;;;;;33.80;6.05;;;;;;;13.70;73.53;101097.63;5038664;28;20037;-72
2022/06/09 11:49:54;;;;;;;24.17;5.65;;;;;;;13.62;73.35;101085.28;5031781;28;20104;-71
2022/06/09 11:52:25;;;;;;;29.33;4.82;;;;;;;13.63;73.39;101084.25;5041629;28;20192;-71
2022/06/09 11:54:57;;;;;;;28.30;7.35;;;;;;;13.51;74.24;101091.38;5032090;28;20053;-68
2022/06/09 11:57:35;;;;;;;20.48;6.22;;;;;;;13.42;75.04;101090.00;5046503;28;20544;-70
2022/06/09 12:00:27;;;;;;;27.73;5.75;;;;;;;13.51;74.42;101087.88;5051683;28;20079;-69
2022/06/09 12:03:27;;;;;;;24.05;5.95;;;;;;;13.53;74.68;101085.78;5033813;28;20035;-68
2022/06/09 12:06:25;;;;;;;24.90;5.95;;;;;;;13.49;74.65;101082.69;5030809;28;20036;-67